sensor_id;sensor_type;location;lat;lon;timestamp;temperature;humidity
15013;DHT22;7603;49.432;11.418;2024-03-08T00:02:17;-0.70;99.90
15013;DHT22;7603;49.432;11.418;2024-03-08T00:04:42;-0.70;99.90
15013;DHT22;7603;49.432;11.418;2024-03-08T00:07:08;-0.70;99.90
15013;DHT22;7603;49.432;11.418;2024-03-08T00:09:33;-0.70;99.90
15013;DHT22;7603;49.432;11.418;2024-03-08T00:11:59;-0.70;99.90
15013;DHT22;7603;49.432;11.418;2024-03-08T00:14:25;-0.80;99.90
15013;DHT22;7603;49.432;11.418;2024-03-08T00:16:51;-0.80;99.90
15013;DHT22;7603;49.432;11.418;2024-03-08T00:19:18;-0.80;99.90
15013;DHT22;7603;49.432;11.418;2024-03-08T00:21:43;-0.80;99.90
15013;DHT22;7603;49.432;11.418;2024-03-08T00:24:10;-0.80;99.90
15013;DHT22;7603;49.432;11.418;2024-03-08T00:26:36;-0.80;99.90
15013;DHT22;7603;49.432;11.418;2024-03-08T00:29:02;-0.90;99.90
15013;DHT22;7603;49.432;11.418;2024-03-08T00:31:28;-0.90;99.90
15013;DHT22;7603;49.432;11.418;2024-03-08T00:33:56;-0.90;99.90
15013;DHT22;7603;49.432;11.418;2024-03-08T00:36:22;-0.90;99.90
15013;DHT22;7603;49.432;11.418;2024-03-08T00:38:48;-1.00;99.90
15013;DHT22;7603;49.432;11.418;2024-03-08T00:41:14;-1.00;99.90
15013;DHT22;7603;49.432;11.418;2024-03-08T00:43:39;-1.00;99.90
15013;DHT22;7603;49.432;11.418;2024-03-08T00:46:05;-1.00;99.90
15013;DHT22;7603;49.432;11.418;2024-03-08T00:48:30;-1.00;99.90
15013;DHT22;7603;49.432;11.418;2024-03-08T00:50:56;-1.10;99.90
15013;DHT22;7603;49.432;11.418;2024-03-08T00:53:22;-1.10;99.90
15013;DHT22;7603;49.432;11.418;2024-03-08T00:55:48;-1.10;99.90
15013;DHT22;7603;49.432;11.418;2024-03-08T00:58:14;-1.10;99.90
15013;DHT22;7603;49.432;11.418;2024-03-08T01:00:40;-1.20;99.90
15013;DHT22;7603;49.432;11.418;2024-03-08T01:03:06;-1.20;99.90
15013;DHT22;7603;49.432;11.418;2024-03-08T01:05:32;-1.30;99.90
15013;DHT22;7603;49.432;11.418;2024-03-08T01:07:59;-1.30;99.90
15013;DHT22;7603;49.432;11.418;2024-03-08T01:10:24;-1.30;99.90
15013;DHT22;7603;49.432;11.418;2024-03-08T01:12:50;-1.40;99.90
15013;DHT22;7603;49.432;11.418;2024-03-08T01:15:16;-1.50;99.90
15013;DHT22;7603;49.432;11.418;2024-03-08T01:17:41;-1.50;99.90
15013;DHT22;7603;49.432;11.418;2024-03-08T01:20:09;-1.50;99.90
15013;DHT22;7603;49.432;11.418;2024-03-08T01:22:38;-1.50;99.90
15013;DHT22;7603;49.432;11.418;2024-03-08T01:25:04;-1.60;99.90
15013;DHT22;7603;49.432;11.418;2024-03-08T01:27:31;-1.60;99.90
15013;DHT22;7603;49.432;11.418;2024-03-08T01:29:56;-1.70;99.90
15013;DHT22;7603;49.432;11.418;2024-03-08T01:32:24;-1.70;99.90
15013;DHT22;7603;49.432;11.418;2024-03-08T01:34:50;-1.70;99.90
15013;DHT22;7603;49.432;11.418;2024-03-08T01:37:16;-1.80;99.90
15013;DHT22;7603;49.432;11.418;2024-03-08T01:39:42;-1.80;99.90
15013;DHT22;7603;49.432;11.418;2024-03-08T01:42:07;-1.90;99.90
15013;DHT22;7603;49.432;11.418;2024-03-08T01:44:33;-2.00;99.90
15013;DHT22;7603;49.432;11.418;2024-03-08T01:47:00;-2.00;99.90
15013;DHT22;7603;49.432;11.418;2024-03-08T01:49:26;-2.10;99.90
15013;DHT22;7603;49.432;11.418;2024-03-08T01:51:53;-2.10;99.90
15013;DHT22;7603;49.432;11.418;2024-03-08T01:54:22;-2.20;99.90
15013;DHT22;7603;49.432;11.418;2024-03-08T01:56:50;-2.30;99.90
15013;DHT22;7603;49.432;11.418;2024-03-08T01:59:16;-2.40;99.90
15013;DHT22;7603;49.432;11.418;2024-03-08T02:01:42;-2.50;99.90
15013;DHT22;7603;49.432;11.418;2024-03-08T02:04:08;-2.50;99.90
15013;DHT22;7603;49.432;11.418;2024-03-08T02:06:34;-2.60;99.90
15013;DHT22;7603;49.432;11.418;2024-03-08T02:09:00;-2.60;99.90
15013;DHT22;7603;49.432;11.418;2024-03-08T02:11:31;-2.70;99.90
15013;DHT22;7603;49.432;11.418;2024-03-08T02:13:58;-2.80;99.90
15013;DHT22;7603;49.432;11.418;2024-03-08T02:16:23;-2.80;99.90
15013;DHT22;7603;49.432;11.418;2024-03-08T02:18:49;-2.90;99.90
15013;DHT22;7603;49.432;11.418;2024-03-08T02:21:17;-3.00;99.90
15013;DHT22;7603;49.432;11.418;2024-03-08T02:23:46;-3.00;99.90
15013;DHT22;7603;49.432;11.418;2024-03-08T02:26:12;-3.00;99.90
15013;DHT22;7603;49.432;11.418;2024-03-08T02:28:38;-3.10;99.90
15013;DHT22;7603;49.432;11.418;2024-03-08T02:31:05;-3.10;99.90
15013;DHT22;7603;49.432;11.418;2024-03-08T02:33:33;-3.10;99.90
15013;DHT22;7603;49.432;11.418;2024-03-08T02:35:59;-3.20;99.90
15013;DHT22;7603;49.432;11.418;2024-03-08T02:38:25;-3.20;99.90
15013;DHT22;7603;49.432;11.418;2024-03-08T02:40:52;-3.20;99.90
15013;DHT22;7603;49.432;11.418;2024-03-08T02:43:20;-3.20;99.90
15013;DHT22;7603;49.432;11.418;2024-03-08T02:45:47;-3.20;99.90
15013;DHT22;7603;49.432;11.418;2024-03-08T02:48:14;-3.30;99.90
15013;DHT22;7603;49.432;11.418;2024-03-08T02:50:40;-3.30;99.90
15013;DHT22;7603;49.432;11.418;2024-03-08T02:53:08;-3.30;99.90
15013;DHT22;7603;49.432;11.418;2024-03-08T02:55:35;-3.30;99.90
15013;DHT22;7603;49.432;11.418;2024-03-08T02:58:02;-3.40;99.90
15013;DHT22;7603;49.432;11.418;2024-03-08T03:00:29;-3.50;99.90
15013;DHT22;7603;49.432;11.418;2024-03-08T03:02:58;-3.50;99.90
15013;DHT22;7603;49.432;11.418;2024-03-08T03:05:24;-3.50;99.90
15013;DHT22;7603;49.432;11.418;2024-03-08T03:07:50;-3.50;99.90
15013;DHT22;7603;49.432;11.418;2024-03-08T03:10:17;-3.60;99.90
15013;DHT22;7603;49.432;11.418;2024-03-08T03:12:44;-3.60;99.90
15013;DHT22;7603;49.432;11.418;2024-03-08T03:15:13;-3.60;99.90
15013;DHT22;7603;49.432;11.418;2024-03-08T03:17:39;-3.60;99.90
15013;DHT22;7603;49.432;11.418;2024-03-08T03:20:08;-3.60;99.90
15013;DHT22;7603;49.432;11.418;2024-03-08T03:22:38;-3.70;99.90
15013;DHT22;7603;49.432;11.418;2024-03-08T03:25:04;-3.70;99.90
15013;DHT22;7603;49.432;11.418;2024-03-08T03:27:32;-3.70;99.90
15013;DHT22;7603;49.432;11.418;2024-03-08T03:29:58;-3.70;99.90
15013;DHT22;7603;49.432;11.418;2024-03-08T03:32:23;-3.70;99.90
15013;DHT22;7603;49.432;11.418;2024-03-08T03:34:49;-3.70;99.90
15013;DHT22;7603;49.432;11.418;2024-03-08T03:37:19;-3.70;99.90
15013;DHT22;7603;49.432;11.418;2024-03-08T03:39:45;-3.70;99.90
15013;DHT22;7603;49.432;11.418;2024-03-08T03:42:19;-3.70;99.90
15013;DHT22;7603;49.432;11.418;2024-03-08T03:44:48;-3.60;99.90
15013;DHT22;7603;49.432;11.418;2024-03-08T03:47:15;-3.60;99.90
15013;DHT22;7603;49.432;11.418;2024-03-08T03:49:43;-3.40;99.90
15013;DHT22;7603;49.432;11.418;2024-03-08T03:52:10;-3.20;99.90
15013;DHT22;7603;49.432;11.418;2024-03-08T03:54:36;-3.10;99.90
15013;DHT22;7603;49.432;11.418;2024-03-08T03:57:02;-3.00;99.90
15013;DHT22;7603;49.432;11.418;2024-03-08T03:59:28;-2.80;99.90
15013;DHT22;7603;49.432;11.418;2024-03-08T04:01:54;-2.70;99.90
15013;DHT22;7603;49.432;11.418;2024-03-08T04:04:20;-2.70;99.90
15013;DHT22;7603;49.432;11.418;2024-03-08T04:06:46;-2.60;99.90
15013;DHT22;7603;49.432;11.418;2024-03-08T04:09:12;-2.60;99.90
15013;DHT22;7603;49.432;11.418;2024-03-08T04:11:38;-2.50;99.90
15013;DHT22;7603;49.432;11.418;2024-03-08T04:14:04;-2.50;99.90
15013;DHT22;7603;49.432;11.418;2024-03-08T04:16:31;-2.50;99.90
15013;DHT22;7603;49.432;11.418;2024-03-08T04:18:58;-2.50;99.90
15013;DHT22;7603;49.432;11.418;2024-03-08T04:21:23;-2.60;99.90
15013;DHT22;7603;49.432;11.418;2024-03-08T04:23:49;-2.60;99.90
15013;DHT22;7603;49.432;11.418;2024-03-08T04:26:15;-2.60;99.90
15013;DHT22;7603;49.432;11.418;2024-03-08T04:28:41;-2.50;99.90
15013;DHT22;7603;49.432;11.418;2024-03-08T04:31:07;-2.60;99.90
15013;DHT22;7603;49.432;11.418;2024-03-08T04:33:33;-2.50;99.90
15013;DHT22;7603;49.432;11.418;2024-03-08T04:36:01;-2.50;99.90
15013;DHT22;7603;49.432;11.418;2024-03-08T04:38:30;-2.40;99.90
15013;DHT22;7603;49.432;11.418;2024-03-08T04:40:59;-2.40;99.90
15013;DHT22;7603;49.432;11.418;2024-03-08T04:43:27;-2.40;99.90
15013;DHT22;7603;49.432;11.418;2024-03-08T04:45:55;-2.30;99.90
15013;DHT22;7603;49.432;11.418;2024-03-08T04:48:21;-2.20;99.90
15013;DHT22;7603;49.432;11.418;2024-03-08T04:50:47;-2.20;99.90
15013;DHT22;7603;49.432;11.418;2024-03-08T04:53:12;-2.30;99.90
15013;DHT22;7603;49.432;11.418;2024-03-08T04:55:39;-2.30;99.90
15013;DHT22;7603;49.432;11.418;2024-03-08T04:58:05;-2.30;99.90
15013;DHT22;7603;49.432;11.418;2024-03-08T05:00:33;-2.40;99.90
15013;DHT22;7603;49.432;11.418;2024-03-08T05:02:59;-2.40;99.90
15013;DHT22;7603;49.432;11.418;2024-03-08T05:05:24;-2.40;99.90
15013;DHT22;7603;49.432;11.418;2024-03-08T05:07:51;-2.40;99.90
15013;DHT22;7603;49.432;11.418;2024-03-08T05:10:17;-2.40;99.90
15013;DHT22;7603;49.432;11.418;2024-03-08T05:12:44;-2.40;99.90
15013;DHT22;7603;49.432;11.418;2024-03-08T05:15:09;-2.30;99.90
15013;DHT22;7603;49.432;11.418;2024-03-08T05:17:35;-2.40;99.90
15013;DHT22;7603;49.432;11.418;2024-03-08T05:20:01;-2.40;99.90
15013;DHT22;7603;49.432;11.418;2024-03-08T05:22:27;-2.30;99.90
15013;DHT22;7603;49.432;11.418;2024-03-08T05:24:53;-2.30;99.90
15013;DHT22;7603;49.432;11.418;2024-03-08T05:27:19;-2.20;99.90
15013;DHT22;7603;49.432;11.418;2024-03-08T05:29:44;-2.00;99.90
15013;DHT22;7603;49.432;11.418;2024-03-08T05:32:11;-1.90;99.90
15013;DHT22;7603;49.432;11.418;2024-03-08T05:34:37;-1.80;99.90
15013;DHT22;7603;49.432;11.418;2024-03-08T05:37:04;-1.80;99.90
15013;DHT22;7603;49.432;11.418;2024-03-08T05:39:29;-1.80;99.90
15013;DHT22;7603;49.432;11.418;2024-03-08T05:41:55;-1.70;99.90
15013;DHT22;7603;49.432;11.418;2024-03-08T05:44:21;-1.70;99.90
15013;DHT22;7603;49.432;11.418;2024-03-08T05:46:47;-1.70;99.90
15013;DHT22;7603;49.432;11.418;2024-03-08T05:49:13;-1.60;99.90
15013;DHT22;7603;49.432;11.418;2024-03-08T05:51:40;-1.60;99.90
15013;DHT22;7603;49.432;11.418;2024-03-08T05:54:10;-1.70;99.90
15013;DHT22;7603;49.432;11.418;2024-03-08T05:56:37;-1.70;99.90
15013;DHT22;7603;49.432;11.418;2024-03-08T05:59:04;-1.70;99.90
15013;DHT22;7603;49.432;11.418;2024-03-08T06:01:30;-1.70;99.90
15013;DHT22;7603;49.432;11.418;2024-03-08T06:04:02;-1.70;99.90
15013;DHT22;7603;49.432;11.418;2024-03-08T06:06:28;-1.70;99.90
15013;DHT22;7603;49.432;11.418;2024-03-08T06:08:55;-1.70;99.90
15013;DHT22;7603;49.432;11.418;2024-03-08T06:11:24;-1.70;99.90
15013;DHT22;7603;49.432;11.418;2024-03-08T06:13:52;-1.70;99.90
15013;DHT22;7603;49.432;11.418;2024-03-08T06:16:25;-1.60;99.90
15013;DHT22;7603;49.432;11.418;2024-03-08T06:18:57;-1.60;99.90
15013;DHT22;7603;49.432;11.418;2024-03-08T06:21:23;-1.60;99.90
15013;DHT22;7603;49.432;11.418;2024-03-08T06:23:52;-1.50;99.90
15013;DHT22;7603;49.432;11.418;2024-03-08T06:26:23;-1.50;99.90
15013;DHT22;7603;49.432;11.418;2024-03-08T06:28:50;-1.50;99.90
15013;DHT22;7603;49.432;11.418;2024-03-08T06:31:16;-1.50;99.90
15013;DHT22;7603;49.432;11.418;2024-03-08T06:33:42;-1.40;99.90
15013;DHT22;7603;49.432;11.418;2024-03-08T06:36:09;-1.40;99.90
15013;DHT22;7603;49.432;11.418;2024-03-08T06:38:36;-1.30;99.90
15013;DHT22;7603;49.432;11.418;2024-03-08T06:41:01;-1.20;99.90
15013;DHT22;7603;49.432;11.418;2024-03-08T06:43:29;-1.10;99.90
15013;DHT22;7603;49.432;11.418;2024-03-08T06:45:59;-1.00;99.90
15013;DHT22;7603;49.432;11.418;2024-03-08T06:48:25;-0.90;99.90
15013;DHT22;7603;49.432;11.418;2024-03-08T06:50:51;-0.80;99.90
15013;DHT22;7603;49.432;11.418;2024-03-08T06:53:16;-0.70;99.90
15013;DHT22;7603;49.432;11.418;2024-03-08T06:55:44;-0.70;99.90
15013;DHT22;7603;49.432;11.418;2024-03-08T06:58:10;-0.60;99.90
15013;DHT22;7603;49.432;11.418;2024-03-08T07:00:37;-0.50;99.90
15013;DHT22;7603;49.432;11.418;2024-03-08T07:03:03;-0.40;99.90
15013;DHT22;7603;49.432;11.418;2024-03-08T07:05:32;-0.30;99.90
15013;DHT22;7603;49.432;11.418;2024-03-08T07:07:58;-0.20;99.90
15013;DHT22;7603;49.432;11.418;2024-03-08T07:10:24;-0.10;99.90
15013;DHT22;7603;49.432;11.418;2024-03-08T07:12:53;0.00;99.90
15013;DHT22;7603;49.432;11.418;2024-03-08T07:15:20;0.00;99.90
15013;DHT22;7603;49.432;11.418;2024-03-08T07:17:46;0.10;99.90
15013;DHT22;7603;49.432;11.418;2024-03-08T07:20:16;0.30;99.90
15013;DHT22;7603;49.432;11.418;2024-03-08T07:22:44;0.30;99.90
15013;DHT22;7603;49.432;11.418;2024-03-08T07:25:13;0.50;99.90
15013;DHT22;7603;49.432;11.418;2024-03-08T07:27:53;0.60;99.90
15013;DHT22;7603;49.432;11.418;2024-03-08T07:30:23;0.70;99.90
15013;DHT22;7603;49.432;11.418;2024-03-08T07:33:08;0.90;99.90
15013;DHT22;7603;49.432;11.418;2024-03-08T07:35:37;1.00;99.90
15013;DHT22;7603;49.432;11.418;2024-03-08T07:38:09;1.20;99.90
15013;DHT22;7603;49.432;11.418;2024-03-08T07:40:39;1.30;99.90
15013;DHT22;7603;49.432;11.418;2024-03-08T07:43:07;1.50;99.90
15013;DHT22;7603;49.432;11.418;2024-03-08T07:45:33;1.70;99.90
15013;DHT22;7603;49.432;11.418;2024-03-08T07:47:59;1.80;99.90
15013;DHT22;7603;49.432;11.418;2024-03-08T07:50:24;2.00;99.90
15013;DHT22;7603;49.432;11.418;2024-03-08T07:52:50;2.20;99.90
15013;DHT22;7603;49.432;11.418;2024-03-08T07:55:16;2.30;99.90
15013;DHT22;7603;49.432;11.418;2024-03-08T07:57:42;2.50;99.90
15013;DHT22;7603;49.432;11.418;2024-03-08T08:00:11;2.60;99.90
15013;DHT22;7603;49.432;11.418;2024-03-08T08:02:43;2.80;99.90
15013;DHT22;7603;49.432;11.418;2024-03-08T08:05:11;3.00;99.90
15013;DHT22;7603;49.432;11.418;2024-03-08T08:07:36;3.10;99.90
15013;DHT22;7603;49.432;11.418;2024-03-08T08:10:02;3.30;99.90
15013;DHT22;7603;49.432;11.418;2024-03-08T08:12:28;3.50;99.90
15013;DHT22;7603;49.432;11.418;2024-03-08T08:14:54;3.70;99.90
15013;DHT22;7603;49.432;11.418;2024-03-08T08:17:20;4.00;99.90
15013;DHT22;7603;49.432;11.418;2024-03-08T08:19:46;4.30;99.90
15013;DHT22;7603;49.432;11.418;2024-03-08T08:22:11;4.60;99.90
15013;DHT22;7603;49.432;11.418;2024-03-08T08:24:37;4.90;99.90
15013;DHT22;7603;49.432;11.418;2024-03-08T08:27:03;5.20;99.90
15013;DHT22;7603;49.432;11.418;2024-03-08T08:29:29;5.50;99.90
15013;DHT22;7603;49.432;11.418;2024-03-08T08:31:58;5.80;99.90
15013;DHT22;7603;49.432;11.418;2024-03-08T08:34:25;6.10;99.90
15013;DHT22;7603;49.432;11.418;2024-03-08T08:36:52;6.40;99.90
15013;DHT22;7603;49.432;11.418;2024-03-08T08:39:18;6.80;99.90
15013;DHT22;7603;49.432;11.418;2024-03-08T08:41:44;7.20;99.90
15013;DHT22;7603;49.432;11.418;2024-03-08T08:44:10;7.60;99.90
15013;DHT22;7603;49.432;11.418;2024-03-08T08:46:38;8.00;99.90
15013;DHT22;7603;49.432;11.418;2024-03-08T08:49:04;8.40;99.90
15013;DHT22;7603;49.432;11.418;2024-03-08T08:51:30;8.80;99.90
15013;DHT22;7603;49.432;11.418;2024-03-08T08:53:58;9.20;99.90
15013;DHT22;7603;49.432;11.418;2024-03-08T08:56:24;9.60;98.90
15013;DHT22;7603;49.432;11.418;2024-03-08T08:58:51;10.10;97.90
15013;DHT22;7603;49.432;11.418;2024-03-08T09:01:19;10.50;95.10
15013;DHT22;7603;49.432;11.418;2024-03-08T09:03:44;10.90;94.40
15013;DHT22;7603;49.432;11.418;2024-03-08T09:06:12;11.30;93.00
15013;DHT22;7603;49.432;11.418;2024-03-08T09:08:39;11.60;90.10
15013;DHT22;7603;49.432;11.418;2024-03-08T09:11:04;11.90;88.50
15013;DHT22;7603;49.432;11.418;2024-03-08T09:13:31;12.00;87.60
15013;DHT22;7603;49.432;11.418;2024-03-08T09:15:57;12.40;86.80
15013;DHT22;7603;49.432;11.418;2024-03-08T09:18:22;12.80;82.60
15013;DHT22;7603;49.432;11.418;2024-03-08T09:20:49;13.20;81.50
15013;DHT22;7603;49.432;11.418;2024-03-08T09:23:19;13.70;80.00
15013;DHT22;7603;49.432;11.418;2024-03-08T09:25:45;14.20;77.40
15013;DHT22;7603;49.432;11.418;2024-03-08T09:28:12;14.70;72.70
15013;DHT22;7603;49.432;11.418;2024-03-08T09:30:38;15.00;70.10
15013;DHT22;7603;49.432;11.418;2024-03-08T09:33:05;15.20;69.30
15013;DHT22;7603;49.432;11.418;2024-03-08T09:35:31;15.40;63.80
15013;DHT22;7603;49.432;11.418;2024-03-08T09:37:57;15.30;62.90
15013;DHT22;7603;49.432;11.418;2024-03-08T09:40:23;15.20;63.40
15013;DHT22;7603;49.432;11.418;2024-03-08T09:42:51;15.30;64.20
15013;DHT22;7603;49.432;11.418;2024-03-08T09:45:19;15.50;61.70
15013;DHT22;7603;49.432;11.418;2024-03-08T09:47:47;15.80;60.50
15013;DHT22;7603;49.432;11.418;2024-03-08T09:50:16;16.10;58.80
15013;DHT22;7603;49.432;11.418;2024-03-08T09:52:43;16.10;58.90
15013;DHT22;7603;49.432;11.418;2024-03-08T09:55:11;16.20;57.30
15013;DHT22;7603;49.432;11.418;2024-03-08T09:57:37;16.50;58.50
15013;DHT22;7603;49.432;11.418;2024-03-08T10:00:04;17.00;57.00
15013;DHT22;7603;49.432;11.418;2024-03-08T10:02:46;17.50;54.40
15013;DHT22;7603;49.432;11.418;2024-03-08T10:05:13;17.90;54.40
15013;DHT22;7603;49.432;11.418;2024-03-08T10:07:39;18.40;52.20
15013;DHT22;7603;49.432;11.418;2024-03-08T10:10:05;18.70;51.80
15013;DHT22;7603;49.432;11.418;2024-03-08T10:12:36;19.20;51.70
15013;DHT22;7603;49.432;11.418;2024-03-08T10:15:02;19.80;49.30
15013;DHT22;7603;49.432;11.418;2024-03-08T10:17:28;20.20;48.50
15013;DHT22;7603;49.432;11.418;2024-03-08T10:19:57;20.60;47.20
15013;DHT22;7603;49.432;11.418;2024-03-08T10:22:25;20.90;46.30
15013;DHT22;7603;49.432;11.418;2024-03-08T10:24:51;21.20;44.40
15013;DHT22;7603;49.432;11.418;2024-03-08T10:27:17;21.40;44.40
15013;DHT22;7603;49.432;11.418;2024-03-08T10:29:47;21.80;42.70
15013;DHT22;7603;49.432;11.418;2024-03-08T10:32:13;21.90;41.30
15013;DHT22;7603;49.432;11.418;2024-03-08T10:34:39;21.90;40.70
15013;DHT22;7603;49.432;11.418;2024-03-08T10:37:05;21.90;41.60
15013;DHT22;7603;49.432;11.418;2024-03-08T10:39:36;22.20;41.20
15013;DHT22;7603;49.432;11.418;2024-03-08T10:42:04;22.60;40.50
15013;DHT22;7603;49.432;11.418;2024-03-08T10:47:18;23.90;39.30
15013;DHT22;7603;49.432;11.418;2024-03-08T10:50:10;24.50;36.30
15013;DHT22;7603;49.432;11.418;2024-03-08T10:52:38;24.70;34.80
15013;DHT22;7603;49.432;11.418;2024-03-08T10:55:05;24.50;34.80
15013;DHT22;7603;49.432;11.418;2024-03-08T10:57:38;24.30;35.20
15013;DHT22;7603;49.432;11.418;2024-03-08T11:00:06;24.50;34.70
15013;DHT22;7603;49.432;11.418;2024-03-08T11:02:35;24.70;34.50
15013;DHT22;7603;49.432;11.418;2024-03-08T11:05:03;24.80;34.20
15013;DHT22;7603;49.432;11.418;2024-03-08T11:07:33;25.10;33.80
15013;DHT22;7603;49.432;11.418;2024-03-08T11:10:02;25.30;33.20
15013;DHT22;7603;49.432;11.418;2024-03-08T11:12:38;25.40;33.20
15013;DHT22;7603;49.432;11.418;2024-03-08T11:15:11;25.70;32.30
15013;DHT22;7603;49.432;11.418;2024-03-08T11:20:12;26.00;32.10
15013;DHT22;7603;49.432;11.418;2024-03-08T11:22:52;26.00;31.40
15013;DHT22;7603;49.432;11.418;2024-03-08T11:30:45;26.90;30.10
15013;DHT22;7603;49.432;11.418;2024-03-08T11:33:13;26.80;30.20
15013;DHT22;7603;49.432;11.418;2024-03-08T11:35:39;26.80;30.20
15013;DHT22;7603;49.432;11.418;2024-03-08T11:38:08;27.00;29.70
15013;DHT22;7603;49.432;11.418;2024-03-08T11:40:34;27.00;29.40
15013;DHT22;7603;49.432;11.418;2024-03-08T11:43:00;26.90;29.10
15013;DHT22;7603;49.432;11.418;2024-03-08T11:45:29;26.60;29.30
15013;DHT22;7603;49.432;11.418;2024-03-08T11:47:55;26.40;29.70
15013;DHT22;7603;49.432;11.418;2024-03-08T11:50:21;26.20;29.00
15013;DHT22;7603;49.432;11.418;2024-03-08T11:52:50;26.30;29.50
15013;DHT22;7603;49.432;11.418;2024-03-08T11:55:16;26.70;29.70
15013;DHT22;7603;49.432;11.418;2024-03-08T11:57:44;27.30;29.50
15013;DHT22;7603;49.432;11.418;2024-03-08T12:00:18;27.80;28.70
15013;DHT22;7603;49.432;11.418;2024-03-08T12:03:05;27.90;28.50
15013;DHT22;7603;49.432;11.418;2024-03-08T12:05:32;28.40;28.50
15013;DHT22;7603;49.432;11.418;2024-03-08T12:07:59;29.10;28.20
15013;DHT22;7603;49.432;11.418;2024-03-08T12:10:25;29.60;27.90
15013;DHT22;7603;49.432;11.418;2024-03-08T12:12:57;30.00;27.70
15013;DHT22;7603;49.432;11.418;2024-03-08T12:15:25;30.40;26.80
15013;DHT22;7603;49.432;11.418;2024-03-08T12:17:52;30.40;27.10
15013;DHT22;7603;49.432;11.418;2024-03-08T12:20:25;30.50;27.00
15013;DHT22;7603;49.432;11.418;2024-03-08T12:22:57;30.40;26.70
15013;DHT22;7603;49.432;11.418;2024-03-08T12:25:32;30.50;26.70
15013;DHT22;7603;49.432;11.418;2024-03-08T12:28:11;30.40;26.80
15013;DHT22;7603;49.432;11.418;2024-03-08T12:30:51;30.70;26.20
15013;DHT22;7603;49.432;11.418;2024-03-08T12:33:22;30.90;25.80
15013;DHT22;7603;49.432;11.418;2024-03-08T12:35:52;30.80;26.20
15013;DHT22;7603;49.432;11.418;2024-03-08T12:38:20;30.70;25.80
15013;DHT22;7603;49.432;11.418;2024-03-08T12:40:50;30.80;25.90
15013;DHT22;7603;49.432;11.418;2024-03-08T12:43:16;30.90;25.80
15013;DHT22;7603;49.432;11.418;2024-03-08T12:45:43;30.80;25.60
15013;DHT22;7603;49.432;11.418;2024-03-08T12:48:15;30.60;25.80
15013;DHT22;7603;49.432;11.418;2024-03-08T12:50:41;30.50;25.90
15013;DHT22;7603;49.432;11.418;2024-03-08T12:53:09;30.70;25.90
15013;DHT22;7603;49.432;11.418;2024-03-08T12:55:35;30.90;25.60
15013;DHT22;7603;49.432;11.418;2024-03-08T12:58:00;30.80;25.20
15013;DHT22;7603;49.432;11.418;2024-03-08T13:00:26;30.30;25.50
15013;DHT22;7603;49.432;11.418;2024-03-08T13:02:53;30.00;25.50
15013;DHT22;7603;49.432;11.418;2024-03-08T13:05:21;29.70;25.90
15013;DHT22;7603;49.432;11.418;2024-03-08T13:07:46;29.70;25.80
15013;DHT22;7603;49.432;11.418;2024-03-08T13:10:13;29.80;26.00
15013;DHT22;7603;49.432;11.418;2024-03-08T13:12:45;30.00;26.00
15013;DHT22;7603;49.432;11.418;2024-03-08T13:15:11;30.30;26.00
15013;DHT22;7603;49.432;11.418;2024-03-08T13:17:41;30.70;25.80
15013;DHT22;7603;49.432;11.418;2024-03-08T13:20:08;31.30;25.10
15013;DHT22;7603;49.432;11.418;2024-03-08T13:22:35;31.20;25.00
15013;DHT22;7603;49.432;11.418;2024-03-08T13:25:02;31.10;24.90
15013;DHT22;7603;49.432;11.418;2024-03-08T13:27:28;31.20;25.00
15013;DHT22;7603;49.432;11.418;2024-03-08T13:29:54;31.60;24.70
15013;DHT22;7603;49.432;11.418;2024-03-08T13:32:20;31.70;24.80
15013;DHT22;7603;49.432;11.418;2024-03-08T13:34:49;31.60;24.60
15013;DHT22;7603;49.432;11.418;2024-03-08T13:37:19;31.90;23.90
15013;DHT22;7603;49.432;11.418;2024-03-08T13:39:45;31.40;24.30
15013;DHT22;7603;49.432;11.418;2024-03-08T13:44:39;31.10;24.60
15013;DHT22;7603;49.432;11.418;2024-03-08T13:47:08;30.80;24.80
15013;DHT22;7603;49.432;11.418;2024-03-08T13:49:34;30.90;24.80
15013;DHT22;7603;49.432;11.418;2024-03-08T13:58:31;31.00;24.20
15013;DHT22;7603;49.432;11.418;2024-03-08T14:01:06;30.70;24.60
15013;DHT22;7603;49.432;11.418;2024-03-08T14:03:39;30.90;25.10
15013;DHT22;7603;49.432;11.418;2024-03-08T14:09:17;31.20;24.70
15013;DHT22;7603;49.432;11.418;2024-03-08T14:11:43;30.80;24.50
15013;DHT22;7603;49.432;11.418;2024-03-08T14:14:17;30.80;24.80
15013;DHT22;7603;49.432;11.418;2024-03-08T14:16:43;30.90;25.00
15013;DHT22;7603;49.432;11.418;2024-03-08T14:19:08;31.20;24.80
15013;DHT22;7603;49.432;11.418;2024-03-08T14:21:35;31.70;24.80
15013;DHT22;7603;49.432;11.418;2024-03-08T14:24:02;31.90;24.20
15013;DHT22;7603;49.432;11.418;2024-03-08T14:26:30;31.90;24.30
15013;DHT22;7603;49.432;11.418;2024-03-08T14:28:55;31.90;24.20
15013;DHT22;7603;49.432;11.418;2024-03-08T14:31:22;32.10;24.10
15013;DHT22;7603;49.432;11.418;2024-03-08T14:33:51;31.80;24.00
15013;DHT22;7603;49.432;11.418;2024-03-08T14:36:18;31.40;24.30
15013;DHT22;7603;49.432;11.418;2024-03-08T14:38:46;31.20;24.50
15013;DHT22;7603;49.432;11.418;2024-03-08T14:41:15;31.00;24.60
15013;DHT22;7603;49.432;11.418;2024-03-08T14:43:42;30.70;24.60
15013;DHT22;7603;49.432;11.418;2024-03-08T14:46:15;29.90;24.90
15013;DHT22;7603;49.432;11.418;2024-03-08T14:48:46;29.30;25.60
15013;DHT22;7603;49.432;11.418;2024-03-08T14:51:13;28.70;26.20
15013;DHT22;7603;49.432;11.418;2024-03-08T14:53:42;28.70;26.30
15013;DHT22;7603;49.432;11.418;2024-03-08T14:56:11;28.70;26.40
15013;DHT22;7603;49.432;11.418;2024-03-08T14:58:42;28.70;26.30
15013;DHT22;7603;49.432;11.418;2024-03-08T15:01:12;28.90;26.60
15013;DHT22;7603;49.432;11.418;2024-03-08T15:03:44;28.70;26.40
15013;DHT22;7603;49.432;11.418;2024-03-08T15:06:09;28.40;26.60
15013;DHT22;7603;49.432;11.418;2024-03-08T15:08:36;28.30;26.70
15013;DHT22;7603;49.432;11.418;2024-03-08T15:11:02;28.30;27.00
15013;DHT22;7603;49.432;11.418;2024-03-08T15:13:28;28.50;27.10
15013;DHT22;7603;49.432;11.418;2024-03-08T15:16:06;28.90;26.80
15013;DHT22;7603;49.432;11.418;2024-03-08T15:18:33;28.90;26.80
15013;DHT22;7603;49.432;11.418;2024-03-08T15:21:06;28.90;26.70
15013;DHT22;7603;49.432;11.418;2024-03-08T15:23:36;28.80;26.60
15013;DHT22;7603;49.432;11.418;2024-03-08T15:26:02;28.40;26.80
15013;DHT22;7603;49.432;11.418;2024-03-08T15:28:29;28.10;27.10
15013;DHT22;7603;49.432;11.418;2024-03-08T15:31:05;27.80;27.20
15013;DHT22;7603;49.432;11.418;2024-03-08T15:33:35;27.70;27.40
15013;DHT22;7603;49.432;11.418;2024-03-08T15:36:07;27.30;27.60
15013;DHT22;7603;49.432;11.418;2024-03-08T15:38:37;26.70;28.00
15013;DHT22;7603;49.432;11.418;2024-03-08T15:41:04;26.20;28.40
15013;DHT22;7603;49.432;11.418;2024-03-08T15:43:35;26.20;28.70
15013;DHT22;7603;49.432;11.418;2024-03-08T15:46:03;26.20;28.80
15013;DHT22;7603;49.432;11.418;2024-03-08T15:48:31;26.30;28.70
15013;DHT22;7603;49.432;11.418;2024-03-08T15:50:57;26.30;28.70
15013;DHT22;7603;49.432;11.418;2024-03-08T15:53:23;26.30;28.60
15013;DHT22;7603;49.432;11.418;2024-03-08T15:55:49;26.20;28.70
15013;DHT22;7603;49.432;11.418;2024-03-08T15:58:15;26.00;28.80